Time;durP1;ratioP1;P1;durP2;ratioP2;P2;SDS_P1;SDS_P2;PMS_P1;PMS_P2;Temp;Humidity;BMP_temperature;BMP_pressure;BME280_temperature;BME280_humidity;BME280_pressure;Samples;Min_cycle;Max_cycle;Signal;HPM_P1;HPM_P2
2023/05/12 00:00:34;;;;;;;5.37;4.23;;;17.70;65.30;;;;;;5021420;28;20469;-81
2023/05/12 00:03:03;;;;;;;5.07;4.10;;;17.50;64.90;;;;;;4999648;28;20839;-82
2023/05/12 00:05:30;;;;;;;5.30;4.40;;;17.60;65.40;;;;;;5017103;28;20456;-83
2023/05/12 00:07:58;;;;;;;4.10;3.70;;;17.70;65.20;;;;;;5031105;28;20454;-83
2023/05/12 00:10:28;;;;;;;8.53;4.30;;;17.60;64.40;;;;;;4998150;28;20501;-83
2023/05/12 00:12:55;;;;;;;4.90;4.00;;;17.50;64.60;;;;;;5042670;28;20453;-82
2023/05/12 00:15:22;;;;;;;6.93;4.00;;;17.50;64.70;;;;;;5006177;28;20511;-83
2023/05/12 00:17:51;;;;;;;6.80;4.13;;;17.50;65.30;;;;;;5017572;28;20955;-82
2023/05/12 00:20:18;;;;;;;4.73;4.33;;;17.50;64.90;;;;;;5030980;28;20485;-82
2023/05/12 00:22:45;;;;;;;4.93;4.53;;;17.50;64.90;;;;;;5024920;28;20945;-82
2023/05/12 00:25:13;;;;;;;5.20;4.70;;;17.50;65.20;;;;;;5032367;28;20452;-83
2023/05/12 00:27:40;;;;;;;5.53;4.27;;;17.50;65.20;;;;;;5022126;28;20437;-82
2023/05/12 00:30:08;;;;;;;7.17;5.73;;;17.50;64.90;;;;;;5023499;28;20554;-82
2023/05/12 00:32:35;;;;;;;6.53;4.73;;;17.30;65.10;;;;;;5017045;28;20451;-80
2023/05/12 00:35:03;;;;;;;4.70;4.30;;;17.30;65.60;;;;;;5018317;28;20538;-82
2023/05/12 00:37:31;;;;;;;5.20;4.70;;;17.30;65.30;;;;;;5040965;28;20467;-83
2023/05/12 00:39:58;;;;;;;6.70;5.10;;;17.30;65.20;;;;;;5031573;28;20473;-83
2023/05/12 00:42:26;;;;;;;8.90;5.30;;;17.20;65.30;;;;;;5033669;28;20449;-82
2023/05/12 00:44:53;;;;;;;7.40;5.63;;;17.10;66.00;;;;;;5030976;28;20469;-83
2023/05/12 00:47:21;;;;;;;9.10;5.43;;;17.20;66.20;;;;;;5023626;28;20867;-83
2023/05/12 00:49:48;;;;;;;9.87;5.03;;;17.30;66.00;;;;;;5031850;28;20463;-82
2023/05/12 00:52:15;;;;;;;7.53;5.40;;;17.30;66.00;;;;;;5031721;28;20551;-82
2023/05/12 00:54:43;;;;;;;7.87;6.10;;;17.30;65.80;;;;;;5006258;28;20449;-82
2023/05/12 00:57:10;;;;;;;5.67;5.07;;;17.20;65.00;;;;;;5014563;28;20452;-83
2023/05/12 00:59:39;;;;;;;7.30;5.53;;;17.10;66.00;;;;;;5022059;28;20484;-82
2023/05/12 01:02:06;;;;;;;8.40;6.00;;;17.20;66.10;;;;;;4996172;28;20452;-83
2023/05/12 01:04:36;;;;;;;7.03;6.30;;;17.30;66.00;;;;;;5006410;28;20530;-82
2023/05/12 01:07:08;;;;;;;7.90;6.10;;;17.30;65.40;;;;;;5015649;28;20442;-81
2023/05/12 01:09:36;;;;;;;8.80;6.47;;;17.20;65.80;;;;;;5033721;28;20585;-82
2023/05/12 01:12:04;;;;;;;9.90;6.97;;;17.20;66.40;;;;;;5021690;28;20450;-83
2023/05/12 01:14:33;;;;;;;7.83;6.20;;;17.30;66.10;;;;;;5015430;28;20488;-82
2023/05/12 01:17:07;;;;;;;11.50;7.30;;;17.40;66.20;;;;;;5006106;28;20445;-82
2023/05/12 01:19:41;;;;;;;9.00;6.50;;;17.50;65.90;;;;;;5034143;28;20558;-82
2023/05/12 01:22:11;;;;;;;11.20;7.60;;;17.40;64.50;;;;;;5017354;28;20452;-83
2023/05/12 01:24:46;;;;;;;8.27;6.70;;;17.10;65.60;;;;;;5021593;28;20554;-84
2023/05/12 01:27:16;;;;;;;9.20;7.47;;;17.30;66.50;;;;;;4999361;28;20488;-82
2023/05/12 01:29:45;;;;;;;11.63;6.90;;;17.40;66.30;;;;;;5001473;28;20465;-82
2023/05/12 01:32:13;;;;;;;7.70;6.40;;;17.50;66.00;;;;;;5033371;28;21487;-83
2023/05/12 01:34:41;;;;;;;9.90;7.17;;;17.60;66.00;;;;;;5021927;28;20990;-83
2023/05/12 01:37:08;;;;;;;12.27;7.80;;;17.60;66.10;;;;;;5022621;28;20964;-83
2023/05/12 01:39:35;;;;;;;8.93;7.20;;;17.60;65.60;;;;;;5020310;28;20813;-82
2023/05/12 01:42:03;;;;;;;9.67;6.53;;;17.70;65.30;;;;;;5012158;28;20461;-82
2023/05/12 01:44:31;;;;;;;9.73;7.40;;;17.70;65.40;;;;;;5014045;28;20464;-83
2023/05/12 01:47:00;;;;;;;8.93;7.27;;;17.70;65.00;;;;;;5013343;28;20461;-83
2023/05/12 01:49:27;;;;;;;13.37;8.53;;;17.60;65.30;;;;;;5022758;28;20481;-82
2023/05/12 01:51:54;;;;;;;8.30;7.43;;;17.50;65.30;;;;;;5017962;28;21024;-82
2023/05/12 01:54:28;;;;;;;11.33;7.77;;;17.60;65.50;;;;;;5030790;28;20943;-82
2023/05/12 01:56:55;;;;;;;10.00;7.53;;;17.60;65.30;;;;;;5021506;28;20453;-82
2023/05/12 01:59:22;;;;;;;9.07;7.27;;;17.60;65.20;;;;;;5012060;28;20485;-85
2023/05/12 02:01:50;;;;;;;7.70;6.90;;;17.50;65.20;;;;;;5004081;28;20618;-82
2023/05/12 02:04:23;;;;;;;9.83;7.33;;;17.60;65.50;;;;;;5006330;28;20461;-84
2023/05/12 02:06:50;;;;;;;9.57;7.00;;;17.40;64.50;;;;;;5030022;28;20535;-82
2023/05/12 02:09:17;;;;;;;11.53;7.73;;;17.00;66.00;;;;;;5012973;28;20466;-82
2023/05/12 02:11:44;;;;;;;15.30;8.27;;;17.00;66.50;;;;;;5015995;28;20862;-82
2023/05/12 02:14:11;;;;;;;11.93;8.47;;;17.00;66.90;;;;;;5015205;28;20898;-83
2023/05/12 02:16:38;;;;;;;11.03;8.00;;;17.20;66.70;;;;;;5015015;28;20449;-84
2023/05/12 02:19:07;;;;;;;10.80;7.87;;;17.20;66.50;;;;;;5028548;28;20526;-82
2023/05/12 02:21:34;;;;;;;10.27;8.00;;;17.20;65.80;;;;;;5015099;28;20480;-84
2023/05/12 02:24:01;;;;;;;10.70;8.20;;;17.30;66.40;;;;;;5020278;28;20469;-84
2023/05/12 02:26:28;;;;;;;10.73;6.80;;;17.30;65.40;;;;;;5002731;28;20456;-83
2023/05/12 02:28:55;;;;;;;11.47;7.80;;;17.00;65.90;;;;;;5038153;28;20473;-82
2023/05/12 02:31:23;;;;;;;14.90;8.23;;;17.00;66.70;;;;;;5019719;28;20481;-84
2023/05/12 02:33:50;;;;;;;9.40;7.63;;;17.00;67.20;;;;;;5031774;28;20452;-83
2023/05/12 02:36:18;;;;;;;9.93;8.07;;;17.00;66.60;;;;;;5036764;28;20459;-84
2023/05/12 02:38:45;;;;;;;12.47;7.90;;;17.10;66.50;;;;;;5026943;28;20477;-82
2023/05/12 02:41:12;;;;;;;10.93;8.33;;;17.20;66.60;;;;;;5039926;28;20457;-83
2023/05/12 02:43:39;;;;;;;12.53;8.47;;;17.20;66.30;;;;;;5015656;28;20969;-81
2023/05/12 02:46:06;;;;;;;10.20;7.50;;;17.10;66.10;;;;;;5040964;28;20450;-82
2023/05/12 02:48:33;;;;;;;11.57;7.13;;;17.20;66.30;;;;;;5016267;28;20974;-82
2023/05/12 02:51:00;;;;;;;13.20;8.80;;;17.20;66.00;;;;;;5014524;28;20463;-83
2023/05/12 02:53:29;;;;;;;10.20;7.80;;;17.30;66.30;;;;;;5015701;28;20802;-82
2023/05/12 02:55:56;;;;;;;11.30;7.73;;;17.30;66.10;;;;;;5002537;28;20438;-84
2023/05/12 02:58:23;;;;;;;10.23;8.70;;;17.40;66.40;;;;;;5004187;28;20458;-83
2023/05/12 03:00:50;;;;;;;12.87;9.10;;;17.10;66.70;;;;;;5048604;28;20545;-82
2023/05/12 03:03:17;;;;;;;11.57;8.13;;;17.30;67.00;;;;;;5027443;28;20550;-82
2023/05/12 03:05:44;;;;;;;13.67;8.70;;;17.20;65.70;;;;;;5040497;28;20576;-84
2023/05/12 03:08:11;;;;;;;11.27;8.10;;;17.20;66.90;;;;;;5049285;28;22424;-83
2023/05/12 03:10:39;;;;;;;9.33;8.30;;;17.30;66.20;;;;;;5010880;28;20486;-83
2023/05/12 03:13:06;;;;;;;9.50;7.70;;;17.20;65.70;;;;;;4998516;28;20521;-83
2023/05/12 03:15:33;;;;;;;9.10;8.00;;;17.20;65.30;;;;;;5019545;28;20499;-82
2023/05/12 03:18:00;;;;;;;8.70;7.60;;;17.30;65.90;;;;;;5002957;28;20446;-82
2023/05/12 03:20:27;;;;;;;11.27;7.90;;;17.30;66.00;;;;;;5026154;28;20473;-82
2023/05/12 03:22:54;;;;;;;10.63;7.90;;;17.40;66.10;;;;;;5015012;28;20548;-82
2023/05/12 03:25:21;;;;;;;9.17;7.50;;;17.30;65.60;;;;;;5002896;28;20465;-83
2023/05/12 03:27:50;;;;;;;13.67;8.57;;;17.40;66.00;;;;;;5015896;28;20954;-83
2023/05/12 03:30:17;;;;;;;9.43;7.67;;;17.40;65.00;;;;;;5018824;28;20473;-82
2023/05/12 03:32:45;;;;;;;9.90;8.47;;;17.40;65.20;;;;;;5031577;28;20461;-83
2023/05/12 03:35:12;;;;;;;9.33;7.93;;;17.50;65.50;;;;;;5017515;28;20484;-83
2023/05/12 03:37:39;;;;;;;8.83;7.57;;;17.50;65.10;;;;;;5005176;28;21408;-82
2023/05/12 03:40:08;;;;;;;12.63;7.67;;;17.60;64.80;;;;;;5023292;28;21304;-82
2023/05/12 03:42:35;;;;;;;10.60;7.37;;;17.60;65.00;;;;;;5047362;28;20446;-82
2023/05/12 03:45:05;;;;;;;8.80;7.70;;;17.70;64.70;;;;;;5003307;28;21012;-83
2023/05/12 03:47:34;;;;;;;9.80;7.97;;;17.60;64.40;;;;;;5015422;28;20461;-83
2023/05/12 03:50:01;;;;;;;11.40;9.00;;;17.60;64.60;;;;;;5031631;28;20460;-83
2023/05/12 03:52:28;;;;;;;11.97;8.03;;;17.50;64.00;;;;;;5039560;28;20529;-83
2023/05/12 03:54:55;;;;;;;9.10;8.00;;;17.40;64.00;;;;;;4999782;28;20447;-83
2023/05/12 03:57:22;;;;;;;10.20;7.67;;;17.40;64.00;;;;;;5001694;28;20472;-82
2023/05/12 03:59:51;;;;;;;11.23;10.13;;;17.40;64.20;;;;;;5036713;28;20587;-82
2023/05/12 04:02:19;;;;;;;14.87;11.80;;;17.10;64.50;;;;;;5019253;28;20458;-83
2023/05/12 04:04:46;;;;;;;12.30;9.20;;;17.20;65.00;;;;;;5030994;28;20472;-83
2023/05/12 04:07:15;;;;;;;9.37;8.43;;;17.30;64.70;;;;;;5037809;28;22989;-82
2023/05/12 04:09:42;;;;;;;11.60;9.63;;;17.30;64.90;;;;;;5031154;28;20975;-82
2023/05/12 04:12:10;;;;;;;10.93;8.00;;;17.40;65.00;;;;;;5002379;28;20503;-83
2023/05/12 04:14:37;;;;;;;10.80;7.87;;;17.40;64.50;;;;;;5029470;28;20450;-83
2023/05/12 04:17:05;;;;;;;9.27;7.47;;;17.40;64.80;;;;;;5006302;28;20460;-82
2023/05/12 04:19:33;;;;;;;8.87;7.70;;;17.40;64.80;;;;;;5024549;28;20468;-83
2023/05/12 04:22:00;;;;;;;9.37;8.00;;;17.50;64.90;;;;;;5031858;28;21021;-82
2023/05/12 04:24:27;;;;;;;10.50;8.07;;;17.50;64.70;;;;;;5017240;28;20556;-81
2023/05/12 04:26:54;;;;;;;9.03;8.13;;;17.60;64.50;;;;;;5004547;28;20540;-81
2023/05/12 04:29:21;;;;;;;10.37;7.80;;;17.70;64.60;;;;;;5040262;28;21272;-82
2023/05/12 04:31:48;;;;;;;8.70;7.37;;;17.70;64.60;;;;;;5024749;28;20872;-83
2023/05/12 04:34:15;;;;;;;9.83;7.23;;;17.70;64.50;;;;;;5022677;28;20909;-84
2023/05/12 04:36:44;;;;;;;20.03;8.30;;;17.60;63.50;;;;;;5021423;28;20474;-84
2023/05/12 04:39:11;;;;;;;11.70;8.37;;;17.20;63.90;;;;;;5007418;28;20488;-81
2023/05/12 04:41:38;;;;;;;9.80;8.10;;;17.30;64.50;;;;;;5000407;28;20441;-83
2023/05/12 04:44:06;;;;;;;9.77;8.57;;;17.40;64.90;;;;;;5017672;28;20544;-82
2023/05/12 04:46:33;;;;;;;8.97;8.03;;;17.50;65.20;;;;;;5000247;28;20870;-83
2023/05/12 04:49:00;;;;;;;10.63;8.63;;;17.60;65.20;;;;;;5008311;28;20495;-83
2023/05/12 04:51:27;;;;;;;9.73;8.73;;;17.70;65.20;;;;;;5032166;28;20449;-83
2023/05/12 04:53:56;;;;;;;10.90;7.90;;;17.70;64.70;;;;;;5032175;28;20445;-82
2023/05/12 04:56:23;;;;;;;12.30;7.90;;;17.80;64.70;;;;;;5018246;28;20537;-82
2023/05/12 04:58:51;;;;;;;10.00;7.57;;;17.80;64.30;;;;;;5012279;28;20485;-83
2023/05/12 05:01:18;;;;;;;11.43;7.10;;;17.90;64.50;;;;;;5035864;28;20535;-82
2023/05/12 05:03:45;;;;;;;7.00;6.30;;;17.90;64.80;;;;;;5048641;28;20452;-82
2023/05/12 05:06:12;;;;;;;8.73;6.40;;;17.90;64.50;;;;;;5012556;28;20476;-82
2023/05/12 05:08:39;;;;;;;11.73;6.87;;;17.80;64.00;;;;;;5022024;28;20553;-83
2023/05/12 05:11:07;;;;;;;6.40;5.80;;;17.70;64.10;;;;;;5009978;28;20510;-82
2023/05/12 05:13:35;;;;;;;7.37;5.97;;;17.70;63.80;;;;;;5015163;28;20480;-83
2023/05/12 05:16:01;;;;;;;7.70;6.57;;;17.80;64.40;;;;;;5035920;28;20470;-83
2023/05/12 05:18:29;;;;;;;8.10;6.57;;;17.80;64.50;;;;;;5022509;28;20453;-82
2023/05/12 05:20:56;;;;;;;7.70;6.20;;;17.90;64.50;;;;;;5030830;28;20445;-81
2023/05/12 05:23:23;;;;;;;11.73;6.20;;;17.80;63.90;;;;;;5002330;28;21002;-83
2023/05/12 05:25:50;;;;;;;9.03;5.57;;;17.80;64.60;;;;;;5033524;28;21010;-82
2023/05/12 05:28:18;;;;;;;7.47;6.37;;;17.70;64.90;;;;;;5015478;28;20465;-82
2023/05/12 05:30:45;;;;;;;6.90;6.13;;;17.70;64.40;;;;;;5004355;28;20520;-81
2023/05/12 05:33:13;;;;;;;7.13;6.43;;;17.70;64.40;;;;;;5006689;28;20448;-82
2023/05/12 05:35:41;;;;;;;8.43;6.00;;;17.80;64.40;;;;;;5040027;28;20889;-81
2023/05/12 05:38:10;;;;;;;6.97;6.20;;;17.80;64.30;;;;;;5024321;28;20440;-82
2023/05/12 05:40:37;;;;;;;6.60;5.90;;;17.90;64.00;;;;;;5022590;28;20473;-82
2023/05/12 05:43:05;;;;;;;7.50;6.33;;;17.90;64.10;;;;;;5008454;28;20828;-81
2023/05/12 05:45:34;;;;;;;8.00;6.23;;;17.80;63.90;;;;;;5001526;28;20500;-83
2023/05/12 05:48:01;;;;;;;7.10;6.37;;;17.80;64.40;;;;;;5016689;28;20436;-80
2023/05/12 05:50:28;;;;;;;7.13;6.43;;;17.90;64.60;;;;;;5016674;28;20473;-84
2023/05/12 05:52:56;;;;;;;7.40;6.23;;;18.00;64.70;;;;;;5002524;28;20489;-82
2023/05/12 05:55:23;;;;;;;8.07;6.27;;;18.10;64.10;;;;;;5016632;28;20532;-80
2023/05/12 05:57:51;;;;;;;7.33;6.63;;;18.10;64.10;;;;;;5032255;28;20445;-83
2023/05/12 06:00:19;;;;;;;9.23;5.93;;;18.00;63.50;;;;;;5027205;28;20488;-82
2023/05/12 06:02:51;;;;;;;6.40;5.80;;;18.10;64.00;;;;;;5001433;28;20452;-82
2023/05/12 06:05:21;;;;;;;10.53;7.07;;;18.10;64.00;;;;;;5019687;28;20476;-82
2023/05/12 06:07:48;;;;;;;7.63;6.57;;;18.10;64.20;;;;;;5002740;28;20445;-83
2023/05/12 06:10:15;;;;;;;6.57;5.97;;;18.20;64.00;;;;;;5021474;28;20481;-82
2023/05/12 06:12:42;;;;;;;11.00;6.60;;;18.20;65.20;;;;;;5025704;28;20973;-81
2023/05/12 06:15:09;;;;;;;8.13;6.93;;;18.10;64.20;;;;;;5051824;28;20453;-82
2023/05/12 06:17:36;;;;;;;9.13;7.30;;;18.10;64.40;;;;;;5025792;28;20457;-83
2023/05/12 06:20:06;;;;;;;6.97;6.27;;;18.10;64.10;;;;;;5026846;28;20533;-83
2023/05/12 06:22:33;;;;;;;7.03;6.10;;;18.10;63.50;;;;;;5045453;28;20488;-81
2023/05/12 06:25:01;;;;;;;6.70;6.10;;;18.10;64.20;;;;;;5027704;28;20455;-81
2023/05/12 06:27:28;;;;;;;8.07;7.30;;;18.10;63.60;;;;;;5003058;28;20453;-84
2023/05/12 06:29:55;;;;;;;12.73;7.53;;;18.10;64.10;;;;;;5017158;28;20483;-83
2023/05/12 06:32:22;;;;;;;13.27;7.83;;;18.20;64.20;;;;;;5009298;28;21983;-80
2023/05/12 06:34:49;;;;;;;9.87;8.10;;;18.20;64.00;;;;;;5020284;28;20459;-83
2023/05/12 06:37:18;;;;;;;11.23;10.10;;;18.30;64.40;;;;;;5021290;28;21475;-81
2023/05/12 06:39:45;;;;;;;10.07;9.07;;;18.20;64.50;;;;;;5025893;28;20460;-82
2023/05/12 06:42:12;;;;;;;12.03;10.33;;;18.30;64.20;;;;;;5034641;28;20452;-83
2023/05/12 06:44:41;;;;;;;9.33;8.37;;;18.30;63.90;;;;;;5020247;28;20457;-82
2023/05/12 06:47:08;;;;;;;10.27;7.73;;;18.20;63.50;;;;;;5026574;28;20468;-81
2023/05/12 06:49:36;;;;;;;9.40;7.87;;;18.20;63.30;;;;;;5026842;28;20525;-81
2023/05/12 06:52:04;;;;;;;8.70;7.77;;;18.20;63.80;;;;;;5026557;28;20461;-81
2023/05/12 06:54:33;;;;;;;8.43;7.47;;;18.20;63.20;;;;;;5024912;28;20445;-83
2023/05/12 06:57:00;;;;;;;9.57;7.27;;;18.20;63.70;;;;;;5052237;28;20811;-83
2023/05/12 06:59:27;;;;;;;9.50;7.67;;;18.30;63.70;;;;;;5017841;28;20492;-84
2023/05/12 07:01:54;;;;;;;7.13;6.43;;;18.30;63.70;;;;;;5012943;28;20457;-80
2023/05/12 07:04:21;;;;;;;8.80;7.90;;;18.40;63.70;;;;;;5033593;28;20456;-82
2023/05/12 07:06:48;;;;;;;7.83;6.93;;;18.40;63.50;;;;;;5032336;28;20491;-83
2023/05/12 07:09:17;;;;;;;7.13;6.43;;;18.40;63.00;;;;;;5049506;28;20465;-83
2023/05/12 07:11:45;;;;;;;8.63;6.83;;;18.40;63.00;;;;;;5035630;28;20806;-82
2023/05/12 07:14:12;;;;;;;8.43;7.60;;;18.50;63.90;;;;;;5027727;28;20512;-81
2023/05/12 07:16:39;;;;;;;9.40;6.60;;;18.50;63.60;;;;;;5025505;28;20929;-80
2023/05/12 07:19:07;;;;;;;10.73;6.53;;;18.40;62.70;;;;;;5027393;28;20474;-81
2023/05/12 07:21:36;;;;;;;7.93;6.00;;;18.30;62.20;;;;;;5037427;28;20438;-81
2023/05/12 07:24:04;;;;;;;7.53;6.23;;;18.30;63.30;;;;;;5034136;28;20462;-81
2023/05/12 07:26:31;;;;;;;14.93;6.97;;;18.20;63.70;;;;;;5027301;28;20488;-82
2023/05/12 07:29:01;;;;;;;6.53;5.77;;;18.30;63.10;;;;;;5023791;28;21550;-82
2023/05/12 07:31:28;;;;;;;7.13;5.50;;;18.30;62.20;;;;;;5034601;28;20445;-84
2023/05/12 07:33:55;;;;;;;9.47;6.30;;;18.20;62.70;;;;;;5018551;28;20543;-82
2023/05/12 07:36:22;;;;;;;6.17;5.50;;;18.30;62.80;;;;;;4999974;28;20449;-81
2023/05/12 07:38:49;;;;;;;7.63;5.30;;;18.30;62.40;;;;;;5032360;28;20478;-82
2023/05/12 07:41:16;;;;;;;6.07;5.47;;;18.10;61.70;;;;;;5015986;28;20459;-83
2023/05/12 07:43:43;;;;;;;9.57;6.00;;;18.20;62.90;;;;;;5034110;28;20437;-81
2023/05/12 07:46:11;;;;;;;6.67;6.07;;;18.30;63.60;;;;;;5035220;28;20488;-83
2023/05/12 07:48:39;;;;;;;7.73;6.00;;;18.40;63.30;;;;;;5034848;28;20489;-82
2023/05/12 07:51:06;;;;;;;6.53;5.93;;;18.20;62.70;;;;;;5004158;28;20947;-82
2023/05/12 07:53:33;;;;;;;8.20;7.13;;;18.20;62.90;;;;;;5018893;28;20454;-83
2023/05/12 07:56:00;;;;;;;7.60;6.37;;;18.20;63.00;;;;;;5015204;28;20455;-82
2023/05/12 07:58:27;;;;;;;8.07;6.70;;;18.30;63.60;;;;;;5007291;28;20449;-83
2023/05/12 08:00:55;;;;;;;7.67;6.30;;;18.40;64.00;;;;;;5018265;28;20461;-83
2023/05/12 08:03:24;;;;;;;6.60;5.93;;;18.40;64.10;;;;;;5016919;28;20448;-83
2023/05/12 08:05:51;;;;;;;8.30;6.67;;;18.40;63.50;;;;;;5023385;28;20469;-83
2023/05/12 08:08:18;;;;;;;7.30;6.33;;;18.50;63.60;;;;;;5000644;28;20456;-81
2023/05/12 08:10:45;;;;;;;6.73;6.03;;;18.40;63.10;;;;;;5001410;28;21073;-83
2023/05/12 08:13:11;;;;;;;8.07;5.87;;;18.50;63.30;;;;;;5016413;28;20462;-84
2023/05/12 08:15:38;;;;;;;6.50;5.83;;;18.40;63.60;;;;;;5008141;28;20829;-82
2023/05/12 08:18:05;;;;;;;7.40;6.70;;;18.20;63.60;;;;;;5016689;28;20955;-84
2023/05/12 08:20:34;;;;;;;6.67;5.97;;;18.20;64.20;;;;;;5010087;28;21378;-81
2023/05/12 08:23:01;;;;;;;11.40;6.80;;;18.10;63.60;;;;;;5008363;28;20452;-82
2023/05/12 08:25:29;;;;;;;9.00;7.73;;;18.20;65.00;;;;;;5002669;28;20452;-83
2023/05/12 08:27:56;;;;;;;8.43;6.90;;;18.20;64.60;;;;;;5032511;28;20908;-82
2023/05/12 08:30:23;;;;;;;9.03;7.10;;;18.30;64.10;;;;;;5024607;28;20469;-84
2023/05/12 08:32:50;;;;;;;7.93;6.37;;;18.30;62.80;;;;;;5025971;28;20452;-83
2023/05/12 08:35:18;;;;;;;7.13;6.47;;;18.30;64.30;;;;;;5020210;28;20449;-83
2023/05/12 08:37:46;;;;;;;6.60;5.93;;;18.30;63.40;;;;;;5013106;28;21175;-82
2023/05/12 08:40:17;;;;;;;8.07;6.60;;;18.30;63.10;;;;;;5034187;28;20779;-82
2023/05/12 08:42:54;;;;;;;7.50;6.47;;;18.50;63.60;;;;;;5033630;28;20441;-83
2023/05/12 08:45:22;;;;;;;6.53;5.83;;;18.80;63.80;;;;;;5033455;28;20884;-82
2023/05/12 08:47:50;;;;;;;10.30;6.10;;;18.90;61.60;;;;;;5031452;28;20846;-82
2023/05/12 08:50:18;;;;;;;7.70;6.00;;;18.60;64.10;;;;;;5034298;28;20470;-82
2023/05/12 08:52:46;;;;;;;7.53;5.80;;;18.50;62.00;;;;;;5025655;28;20448;-84
2023/05/12 08:55:14;;;;;;;9.60;6.50;;;18.50;63.00;;;;;;5001100;28;21053;-82
2023/05/12 08:57:44;;;;;;;6.87;5.33;;;18.30;62.20;;;;;;5021415;28;21108;-83
2023/05/12 09:00:13;;;;;;;7.80;5.77;;;18.20;63.90;;;;;;5024272;28;20508;-82
2023/05/12 09:02:42;;;;;;;6.37;5.10;;;18.30;64.10;;;;;;5005419;28;20469;-81
2023/05/12 09:05:10;;;;;;;6.00;5.40;;;18.30;64.50;;;;;;5016548;28;20828;-83
2023/05/12 09:07:41;;;;;;;6.17;5.57;;;18.40;63.80;;;;;;5046488;28;20484;-83
2023/05/12 09:10:16;;;;;;;6.63;5.50;;;18.50;63.60;;;;;;4997827;28;20982;-83
2023/05/12 09:12:45;;;;;;;6.70;6.00;;;18.30;63.10;;;;;;5022307;28;20478;-83
2023/05/12 09:15:18;;;;;;;26.30;6.13;;;18.30;64.60;;;;;;5017550;28;20472;-83
2023/05/12 09:17:45;;;;;;;5.83;5.23;;;18.30;63.90;;;;;;5029521;28;20945;-85
2023/05/12 09:20:12;;;;;;;5.47;4.97;;;18.30;64.20;;;;;;5027992;28;20468;-83
2023/05/12 09:22:39;;;;;;;5.30;4.80;;;18.30;65.00;;;;;;5024623;28;20448;-82
2023/05/12 09:25:18;;;;;;;5.60;4.90;;;18.30;62.50;;;;;;5015863;28;20452;-83
2023/05/12 09:27:47;;;;;;;6.40;5.23;;;18.20;63.30;;;;;;5033387;28;20468;-81
2023/05/12 09:30:15;;;;;;;5.00;4.50;;;18.20;65.40;;;;;;5021689;28;20526;-83
2023/05/12 09:32:42;;;;;;;6.63;5.30;;;18.40;64.80;;;;;;5012018;28;20541;-83
2023/05/12 09:35:10;;;;;;;5.67;5.10;;;18.70;64.90;;;;;;5027761;28;20457;-83
2023/05/12 09:37:38;;;;;;;6.90;5.70;;;18.80;63.90;;;;;;5027550;28;20447;-82
2023/05/12 09:40:07;;;;;;;5.47;4.80;;;18.80;62.60;;;;;;5011889;28;20482;-82
2023/05/12 09:42:36;;;;;;;5.83;5.10;;;18.30;62.40;;;;;;5035323;28;21461;-82
2023/05/12 09:45:03;;;;;;;5.13;4.73;;;18.10;63.90;;;;;;5045254;28;20801;-83
2023/05/12 09:47:36;;;;;;;5.43;4.93;;;18.30;64.10;;;;;;5004375;28;20470;-82
2023/05/12 09:50:04;;;;;;;5.33;4.83;;;18.30;65.00;;;;;;5012189;28;20473;-83
2023/05/12 09:52:35;;;;;;;6.33;5.10;;;18.50;65.70;;;;;;5022900;28;20440;-83
2023/05/12 09:55:08;;;;;;;9.10;5.73;;;18.90;65.10;;;;;;5028266;28;20449;-82
2023/05/12 09:57:40;;;;;;;9.47;5.37;;;19.00;64.70;;;;;;5005144;28;20572;-82
2023/05/12 10:00:10;;;;;;;4.70;4.30;;;19.40;64.60;;;;;;5015040;28;20468;-82
2023/05/12 10:02:40;;;;;;;4.97;4.57;;;19.70;61.90;;;;;;5006597;28;20682;-83
2023/05/12 10:05:13;;;;;;;5.03;4.20;;;19.60;60.70;;;;;;5036648;28;20967;-82
2023/05/12 10:07:42;;;;;;;5.50;5.00;;;19.50;60.90;;;;;;5040392;28;20469;-82
2023/05/12 10:10:11;;;;;;;4.20;3.80;;;19.30;60.40;;;;;;5013271;28;20469;-82
2023/05/12 10:12:40;;;;;;;3.97;3.67;;;19.50;63.30;;;;;;5025059;28;20453;-82
2023/05/12 10:15:10;;;;;;;4.40;3.70;;;19.80;60.40;;;;;;5029656;28;20465;-83
2023/05/12 10:17:39;;;;;;;5.27;4.13;;;20.10;59.20;;;;;;5029420;28;20453;-82
2023/05/12 10:20:08;;;;;;;4.23;3.87;;;20.10;59.00;;;;;;5004330;28;20466;-82
2023/05/12 10:22:38;;;;;;;4.00;3.67;;;19.90;58.90;;;;;;5015074;28;20746;-82
2023/05/12 10:25:07;;;;;;;4.83;4.40;;;19.90;60.30;;;;;;5022461;28;20476;-83
2023/05/12 10:27:35;;;;;;;4.97;3.50;;;20.10;61.70;;;;;;5015100;28;20488;-83
2023/05/12 10:30:05;;;;;;;3.20;3.00;;;20.40;60.60;;;;;;5022061;28;21320;-83
2023/05/12 10:32:32;;;;;;;3.57;3.27;;;20.50;58.50;;;;;;5023583;28;21517;-84
2023/05/12 10:35:08;;;;;;;3.40;3.17;;;20.60;58.50;;;;;;5014322;28;20539;-81
2023/05/12 10:37:36;;;;;;;3.60;3.03;;;20.60;59.10;;;;;;5028465;28;20449;-82
2023/05/12 10:40:05;;;;;;;6.70;3.93;;;20.60;57.60;;;;;;5046585;28;20954;-82
2023/05/12 10:42:38;;;;;;;3.80;3.50;;;20.50;58.90;;;;;;5024793;28;20458;-83
2023/05/12 10:45:16;;;;;;;3.73;3.43;;;20.60;58.40;;;;;;5023273;28;20453;-84
2023/05/12 10:47:44;;;;;;;3.47;3.07;;;20.60;58.30;;;;;;5035450;28;20476;-83
2023/05/12 10:50:12;;;;;;;3.57;3.13;;;20.60;57.70;;;;;;5010329;28;20473;-83
2023/05/12 10:52:39;;;;;;;3.80;3.50;;;20.70;58.20;;;;;;5021777;28;20451;-85
2023/05/12 10:55:12;;;;;;;3.20;2.90;;;20.50;58.20;;;;;;5022833;28;20463;-83
2023/05/12 10:57:49;;;;;;;3.73;3.43;;;20.60;58.50;;;;;;5003676;28;20447;-83
2023/05/12 11:00:22;;;;;;;3.90;3.53;;;20.40;58.50;;;;;;5028805;28;20481;-83
2023/05/12 11:02:50;;;;;;;3.20;3.00;;;20.40;58.90;;;;;;5008224;28;20644;-81
2023/05/12 11:05:17;;;;;;;5.60;4.60;;;20.60;58.10;;;;;;4999052;28;20454;-83
2023/05/12 11:07:48;;;;;;;8.40;5.23;;;20.40;57.20;;;;;;5049215;28;20485;-82
2023/05/12 11:10:15;;;;;;;3.87;3.40;;;20.10;57.60;;;;;;5005448;28;20478;-83
2023/05/12 11:12:44;;;;;;;3.60;3.30;;;19.90;58.50;;;;;;5007989;28;20464;-83
2023/05/12 11:15:12;;;;;;;4.80;3.63;;;19.90;58.60;;;;;;5017503;28;20497;-83
2023/05/12 11:17:41;;;;;;;3.87;3.30;;;20.10;58.20;;;;;;5036710;28;20480;-82
2023/05/12 11:20:09;;;;;;;4.57;3.43;;;20.10;57.80;;;;;;5014888;28;20581;-83
2023/05/12 11:22:36;;;;;;;3.80;3.33;;;20.10;57.20;;;;;;5042844;28;20457;-84
2023/05/12 11:25:10;;;;;;;3.50;3.20;;;19.90;57.40;;;;;;5032605;28;20441;-83
2023/05/12 11:27:41;;;;;;;3.77;2.90;;;19.70;59.70;;;;;;5018911;28;20488;-83
2023/05/12 11:30:09;;;;;;;4.27;3.33;;;19.80;60.10;;;;;;5030863;28;20861;-83
2023/05/12 11:32:36;;;;;;;3.70;3.40;;;19.80;60.00;;;;;;5015016;28;20445;-82
2023/05/12 11:35:16;;;;;;;3.43;3.10;;;19.90;59.70;;;;;;5014359;28;20448;-82
2023/05/12 11:37:45;;;;;;;5.50;4.87;;;20.10;60.50;;;;;;5033384;28;21104;-83
2023/05/12 11:40:14;;;;;;;4.67;3.40;;;20.30;61.70;;;;;;5006430;28;20462;-82
2023/05/12 11:42:44;;;;;;;4.60;3.57;;;20.10;59.30;;;;;;5031335;28;20454;-83
2023/05/12 11:45:21;;;;;;;3.60;3.30;;;20.00;59.90;;;;;;5022374;28;20449;-82
2023/05/12 11:47:48;;;;;;;3.83;3.50;;;20.00;60.20;;;;;;5024023;28;20500;-83
2023/05/12 11:50:22;;;;;;;6.10;5.00;;;20.10;60.40;;;;;;5001753;28;20469;-83
2023/05/12 11:52:50;;;;;;;6.63;4.53;;;20.10;61.40;;;;;;5015948;28;20441;-83
2023/05/12 11:55:22;;;;;;;4.73;4.23;;;20.30;61.20;;;;;;5028901;28;20479;-83
2023/05/12 11:57:58;;;;;;;4.47;3.30;;;20.30;60.10;;;;;;4998230;28;20434;-83
2023/05/12 12:00:33;;;;;;;6.97;4.17;;;20.60;60.60;;;;;;4998388;28;20889;-83
2023/05/12 12:03:10;;;;;;;5.77;4.40;;;20.80;60.60;;;;;;5045654;28;20548;-82
2023/05/12 12:05:39;;;;;;;3.23;2.93;;;20.80;57.80;;;;;;5005854;28;20455;-83
2023/05/12 12:08:08;;;;;;;2.77;2.30;;;20.90;57.00;;;;;;5036944;28;20481;-82
2023/05/12 12:10:35;;;;;;;4.20;3.00;;;21.20;56.00;;;;;;5013547;28;20457;-83
2023/05/12 12:13:02;;;;;;;2.83;2.63;;;21.20;54.70;;;;;;4996622;28;20823;-83
2023/05/12 12:15:29;;;;;;;4.00;2.73;;;21.30;56.00;;;;;;5027805;28;20456;-83
2023/05/12 12:17:56;;;;;;;3.90;3.40;;;21.50;53.90;;;;;;5020526;28;20445;-84
2023/05/12 12:20:24;;;;;;;3.73;3.13;;;21.80;55.00;;;;;;5012452;28;20472;-83
2023/05/12 12:22:53;;;;;;;3.60;3.13;;;22.10;55.60;;;;;;5012800;28;20454;-84
2023/05/12 12:25:20;;;;;;;3.40;3.10;;;22.10;52.30;;;;;;5020457;28;21186;-83
2023/05/12 12:27:47;;;;;;;2.80;2.60;;;21.70;53.70;;;;;;5049031;28;20477;-82
2023/05/12 12:30:15;;;;;;;3.27;2.97;;;21.60;54.00;;;;;;5030998;28;20468;-83
2023/05/12 12:32:43;;;;;;;2.80;2.60;;;21.50;53.30;;;;;;5013852;28;20444;-83
2023/05/12 12:35:10;;;;;;;3.90;3.13;;;21.20;53.90;;;;;;5006939;28;20437;-83
2023/05/12 12:37:37;;;;;;;3.10;2.77;;;20.80;54.80;;;;;;5049531;28;20494;-82
2023/05/12 12:40:08;;;;;;;5.30;2.77;;;20.30;57.50;;;;;;5014050;28;20461;-83
2023/05/12 12:42:37;;;;;;;3.40;3.10;;;20.20;58.90;;;;;;5015857;28;20451;-82
2023/05/12 12:45:04;;;;;;;8.90;4.13;;;20.30;59.20;;;;;;5013109;28;20483;-83
2023/05/12 12:47:32;;;;;;;3.10;2.90;;;20.40;59.30;;;;;;5015427;28;20474;-83
2023/05/12 12:49:59;;;;;;;3.13;2.83;;;20.50;59.50;;;;;;5030956;28;20476;-82